Time;durP1;ratioP1;P1;durP2;ratioP2;P2;SDS_P1;SDS_P2;PMS_P1;PMS_P2;Temp;Humidity;BMP_temperature;BMP_pressure;BME280_temperature;BME280_humidity;BME280_pressure;Samples;Min_cycle;Max_cycle;Signal;HPM_P1;HPM_P2
2021/05/25 00:01:59;;;;;;;1.55;0.85;;;;;;;13.55;64.02;96216.82;1730023;81;20970;-82
2021/05/25 00:04:25;;;;;;;3.95;1.30;;;;;;;13.51;64.25;96221.66;1732241;81;20974;-82
2021/05/25 00:06:52;;;;;;;3.12;1.37;;;;;;;13.44;64.50;96220.84;1742973;81;21335;-83
2021/05/25 00:09:18;;;;;;;2.35;1.07;;;;;;;13.40;64.28;96215.73;1741683;81;20982;-82
2021/05/25 00:11:43;;;;;;;2.15;1.05;;;;;;;13.39;64.28;96227.98;1750125;81;20986;-82
2021/05/25 00:14:10;;;;;;;2.45;1.30;;;;;;;13.38;64.00;96211.23;1742566;81;21350;-82
2021/05/25 00:16:36;;;;;;;1.82;0.88;;;;;;;13.32;63.94;96201.58;1724982;81;20966;-82
2021/05/25 00:19:02;;;;;;;1.57;0.75;;;;;;;13.32;64.52;96193.75;1667866;84;21292;-82
2021/05/25 00:21:28;;;;;;;2.80;1.20;;;;;;;13.33;64.41;96193.55;1713595;83;20946;-82
2021/05/25 00:23:54;;;;;;;2.27;1.00;;;;;;;13.36;64.90;96178.02;1686393;83;21454;-82
2021/05/25 00:26:20;;;;;;;1.55;0.90;;;;;;;13.36;65.13;96180.12;1748792;80;21056;-85
2021/05/25 00:28:45;;;;;;;2.70;1.05;;;;;;;13.35;64.07;96178.52;1669248;84;20934;-85
2021/05/25 00:31:11;;;;;;;2.87;1.02;;;;;;;13.37;64.13;96170.48;1729506;81;20916;-86
2021/05/25 00:33:37;;;;;;;2.30;0.90;;;;;;;13.41;64.26;96176.89;1736270;81;20947;-86
2021/05/25 00:36:03;;;;;;;3.08;1.15;;;;;;;13.39;63.45;96169.27;1731571;81;20999;-86
2021/05/25 00:38:30;;;;;;;2.15;0.85;;;;;;;13.42;63.44;96174.58;1730382;81;21015;-86
2021/05/25 00:40:56;;;;;;;1.55;1.00;;;;;;;13.42;63.26;96164.14;1728612;81;21325;-86
2021/05/25 00:43:22;;;;;;;2.35;1.10;;;;;;;13.39;64.23;96173.19;1727953;81;21062;-85
2021/05/25 00:45:48;;;;;;;3.25;0.98;;;;;;;13.36;63.24;96151.92;1732420;81;20907;-82
2021/05/25 00:48:14;;;;;;;2.00;1.00;;;;;;;13.37;62.74;96140.47;1733526;81;20967;-82
2021/05/25 00:50:39;;;;;;;2.42;0.90;;;;;;;13.44;62.03;96147.27;1741865;81;21065;-82
2021/05/25 00:53:05;;;;;;;3.10;2.42;;;;;;;13.51;61.67;96153.78;1742739;81;20971;-82
2021/05/25 00:55:35;;;;;;;2.25;0.90;;;;;;;13.56;61.34;96129.16;1735566;81;21066;-82
2021/05/25 00:58:05;;;;;;;3.55;0.98;;;;;;;13.63;61.15;96120.80;1665254;84;21077;-82
2021/05/25 01:00:39;;;;;;;2.87;1.15;;;;;;;13.69;60.71;96123.90;1729239;81;21100;-83
2021/05/25 01:03:10;;;;;;;1.85;0.90;;;;;;;13.75;60.63;96139.23;1746016;81;21053;-82
2021/05/25 01:05:36;;;;;;;3.72;1.10;;;;;;;13.79;60.65;96137.30;1731395;81;20934;-82
2021/05/25 01:08:01;;;;;;;2.67;0.90;;;;;;;13.82;60.62;96129.55;1734294;81;21042;-83
2021/05/25 01:10:33;;;;;;;2.42;1.00;;;;;;;13.84;60.55;96128.86;1682805;84;21076;-83
2021/05/25 01:13:02;;;;;;;3.50;1.00;;;;;;;13.89;60.58;96125.11;1735811;81;21427;-83
2021/05/25 01:15:27;;;;;;;3.35;1.15;;;;;;;13.93;60.55;96124.98;1740832;81;21309;-82
2021/05/25 01:17:54;;;;;;;2.40;1.50;;;;;;;13.95;61.18;96127.39;1733840;81;20967;-83
2021/05/25 01:20:22;;;;;;;2.98;0.90;;;;;;;13.96;60.40;96139.44;1686982;84;20976;-83
2021/05/25 01:22:48;;;;;;;1.70;0.98;;;;;;;13.98;59.91;96121.23;1680748;84;21057;-83
2021/05/25 01:25:15;;;;;;;2.10;1.25;;;;;;;14.00;59.31;96110.09;1710565;83;20934;-83
2021/05/25 01:27:41;;;;;;;2.00;0.80;;;;;;;14.03;59.72;96131.08;1731603;81;21042;-83
2021/05/25 01:30:08;;;;;;;3.02;1.10;;;;;;;14.04;60.34;96135.29;1682930;84;21298;-83
2021/05/25 01:32:34;;;;;;;1.98;0.90;;;;;;;14.02;60.95;96121.64;1702486;83;20997;-82
2021/05/25 01:35:00;;;;;;;2.65;1.40;;;;;;;13.99;61.85;96111.58;1748226;81;21033;-86
2021/05/25 01:37:27;;;;;;;2.77;1.17;;;;;;;13.92;62.02;96120.77;1744377;81;21030;-87
2021/05/25 01:39:55;;;;;;;3.67;1.10;;;;;;;13.87;62.55;96106.24;1738676;81;21070;-83
2021/05/25 01:42:20;;;;;;;2.83;0.82;;;;;;;13.82;63.35;96109.45;1741709;81;20966;-83
2021/05/25 01:44:46;;;;;;;1.77;0.90;;;;;;;13.79;63.08;96100.73;1732261;81;21113;-83
2021/05/25 01:47:12;;;;;;;1.55;1.00;;;;;;;13.77;63.79;96098.05;1679785;84;21384;-85
2021/05/25 01:49:39;;;;;;;3.95;1.32;;;;;;;13.74;63.42;96119.36;1733609;81;21070;-86
2021/05/25 01:52:05;;;;;;;2.00;1.12;;;;;;;13.71;63.67;96131.02;1720965;81;21355;-86
2021/05/25 01:54:31;;;;;;;3.25;1.20;;;;;;;13.69;64.47;96138.27;1727458;81;21000;-87
2021/05/25 01:56:57;;;;;;;1.85;1.00;;;;;;;13.62;64.11;96136.16;1737283;81;20955;-87
2021/05/25 01:59:22;;;;;;;3.58;1.12;;;;;;;13.58;64.16;96130.27;1738434;80;21030;-87
2021/05/25 02:01:48;;;;;;;2.08;1.00;;;;;;;13.55;64.03;96134.59;1748438;80;21254;-87
2021/05/25 02:04:14;;;;;;;1.87;0.80;;;;;;;13.55;64.17;96138.52;1739616;80;20987;-83
2021/05/25 02:06:40;;;;;;;2.80;1.00;;;;;;;13.51;64.16;96145.45;1750873;80;21041;-86
2021/05/25 02:09:05;;;;;;;3.35;0.90;;;;;;;13.51;64.68;96156.40;1739867;80;21074;-87
2021/05/25 02:11:32;;;;;;;2.72;1.40;;;;;;;13.51;64.35;96161.63;1749459;80;21703;-83
2021/05/25 02:13:57;;;;;;;2.67;1.12;;;;;;;13.56;64.28;96177.45;1701418;82;21025;-83
2021/05/25 02:16:23;;;;;;;2.10;1.15;;;;;;;13.57;64.46;96196.03;1756211;80;21033;-83
2021/05/25 02:18:49;;;;;;;3.75;1.20;;;;;;;13.57;65.03;96199.95;1755271;80;21367;-83
2021/05/25 02:21:19;;;;;;;2.85;1.15;;;;;;;13.57;64.32;96206.47;1750082;80;20930;-83
2021/05/25 02:23:45;;;;;;;3.30;1.32;;;;;;;13.60;64.41;96203.95;1744401;80;20973;-83
2021/05/25 02:26:12;;;;;;;2.17;1.37;;;;;;;13.60;65.04;96224.33;1749611;80;20993;-83
2021/05/25 02:28:37;;;;;;;3.15;1.30;;;;;;;13.59;65.62;96223.23;1756183;80;20977;-83
2021/05/25 02:31:03;;;;;;;2.02;1.50;;;;;;;13.55;66.61;96246.84;1750164;80;20911;-83
2021/05/25 02:33:29;;;;;;;3.15;1.10;;;;;;;13.49;68.19;96240.61;1710281;82;21870;-86
2021/05/25 02:35:57;;;;;;;4.25;1.15;;;;;;;13.37;68.34;96249.57;1750059;80;20998;-86
2021/05/25 02:38:23;;;;;;;1.67;1.20;;;;;;;13.26;67.69;96240.23;1750634;80;20999;-86
2021/05/25 02:40:50;;;;;;;3.02;1.25;;;;;;;13.22;68.39;96217.67;1743482;80;20938;-86
2021/05/25 02:43:21;;;;;;;2.55;1.00;;;;;;;13.20;68.91;96207.94;1748084;80;20951;-85
2021/05/25 02:45:47;;;;;;;3.17;1.10;;;;;;;13.08;68.85;96205.59;1749472;80;20934;-86
2021/05/25 02:48:13;;;;;;;1.80;0.88;;;;;;;12.97;69.31;96199.17;1701063;82;20986;-86
2021/05/25 02:50:39;;;;;;;1.82;0.80;;;;;;;12.87;69.16;96208.72;1753417;80;20958;-86
2021/05/25 02:53:05;;;;;;;3.33;0.93;;;;;;;12.79;69.10;96204.18;1709257;82;21025;-87
2021/05/25 02:55:34;;;;;;;2.52;1.05;;;;;;;12.69;69.51;96207.67;1759855;80;21313;-86
2021/05/25 02:58:00;;;;;;;1.90;0.70;;;;;;;12.58;69.80;96204.67;1743303;80;21267;-86
2021/05/25 03:00:39;;;;;;;1.55;0.95;;;;;;;12.48;70.28;96207.34;1727929;81;21030;-83
2021/05/25 03:03:06;;;;;;;3.15;1.20;;;;;;;12.37;70.88;96186.59;1727543;81;21011;-83
2021/05/25 03:05:32;;;;;;;1.47;0.80;;;;;;;12.24;70.49;96182.15;1742777;81;20969;-83
2021/05/25 03:07:59;;;;;;;1.17;0.80;;;;;;;12.18;71.15;96167.78;1733180;81;21005;-86
2021/05/25 03:10:29;;;;;;;1.82;0.80;;;;;;;12.09;72.24;96161.17;1740172;81;21014;-85
2021/05/25 03:12:55;;;;;;;3.15;1.12;;;;;;;12.03;72.29;96141.91;1738215;81;21275;-85
2021/05/25 03:15:25;;;;;;;1.55;1.12;;;;;;;11.96;72.20;96127.58;1734427;81;21015;-86
2021/05/25 03:17:51;;;;;;;1.60;0.90;;;;;;;11.95;73.21;96127.77;1730781;81;21022;-86
2021/05/25 03:20:17;;;;;;;2.27;1.17;;;;;;;11.94;73.90;96128.27;1734427;81;20936;-86
2021/05/25 03:22:44;;;;;;;1.67;0.88;;;;;;;11.97;72.97;96147.41;1742130;81;20939;-86
2021/05/25 03:25:10;;;;;;;1.95;1.15;;;;;;;11.97;74.72;96144.80;1721847;81;21302;-83
2021/05/25 03:27:36;;;;;;;1.17;1.02;;;;;;;11.94;74.02;96138.69;1731519;81;20922;-83
2021/05/25 03:30:08;;;;;;;1.47;0.90;;;;;;;11.95;73.89;96128.58;1745272;81;20966;-83
2021/05/25 03:32:36;;;;;;;1.95;0.80;;;;;;;11.93;74.59;96103.23;1730957;81;21011;-83
2021/05/25 03:35:03;;;;;;;2.05;1.15;;;;;;;11.92;74.22;96095.12;1732372;81;21346;-85
2021/05/25 03:37:29;;;;;;;1.20;0.82;;;;;;;11.91;73.96;96096.13;1743588;81;20998;-84
2021/05/25 03:39:55;;;;;;;1.50;0.90;;;;;;;11.92;74.35;96093.02;1737972;81;21026;-84
2021/05/25 03:42:21;;;;;;;2.02;0.75;;;;;;;11.90;74.37;96094.52;1748855;81;21276;-84
2021/05/25 03:44:47;;;;;;;1.15;0.82;;;;;;;11.91;74.87;96100.53;1740816;81;20965;-84
2021/05/25 03:47:12;;;;;;;1.72;0.98;;;;;;;11.92;74.42;96107.34;1739529;81;20951;-83
2021/05/25 03:49:38;;;;;;;2.00;0.85;;;;;;;11.93;74.40;96107.14;1732049;81;20960;-84
2021/05/25 03:52:05;;;;;;;1.37;1.00;;;;;;;11.96;74.56;96134.08;1743692;81;20922;-84
2021/05/25 03:54:37;;;;;;;3.22;1.45;;;;;;;12.01;74.73;96151.22;1747576;81;20967;-84
2021/05/25 03:57:07;;;;;;;1.80;1.00;;;;;;;12.02;74.88;96156.72;1713470;82;20975;-84
2021/05/25 03:59:26;;;;;;;1.52;0.78;;;;;;;12.02;74.88;96154.62;1732475;81;21279;-84
2021/05/25 04:01:52;;;;;;;2.33;1.10;;;;;;;12.03;75.10;96173.95;1736787;81;21042;-84
2021/05/25 04:04:18;;;;;;;2.08;1.10;;;;;;;12.03;75.34;96176.55;1740317;81;21010;-84
2021/05/25 04:06:44;;;;;;;1.87;1.25;;;;;;;12.03;75.26;96180.46;1729267;81;20943;-86
2021/05/25 04:09:10;;;;;;;1.92;1.30;;;;;;;12.01;75.42;96182.96;1748852;81;20962;-83
2021/05/25 04:11:36;;;;;;;2.33;1.07;;;;;;;11.98;75.41;96201.58;1748334;81;21046;-83
2021/05/25 04:14:03;;;;;;;2.25;1.17;;;;;;;11.96;75.78;96190.06;1749065;81;21030;-83
2021/05/25 04:16:29;;;;;;;1.55;0.78;;;;;;;11.93;75.95;96177.44;1751360;81;20970;-83
2021/05/25 04:18:55;;;;;;;1.30;0.80;;;;;;;11.97;76.04;96176.55;1734057;81;21073;-83
2021/05/25 04:21:21;;;;;;;1.45;0.72;;;;;;;12.02;76.32;96176.75;1733337;81;20949;-83
2021/05/25 04:23:46;;;;;;;1.37;0.80;;;;;;;12.07;76.33;96170.48;1734690;81;20927;-83
2021/05/25 04:26:12;;;;;;;3.00;0.80;;;;;;;12.13;76.52;96174.89;1745923;81;21254;-83
2021/05/25 04:28:38;;;;;;;2.17;0.82;;;;;;;12.15;75.82;96186.41;1740212;81;20955;-83
2021/05/25 04:31:04;;;;;;;1.20;0.80;;;;;;;12.18;75.99;96175.60;1748121;80;20943;-83
2021/05/25 04:33:29;;;;;;;1.22;0.55;;;;;;;12.21;76.20;96173.93;1731343;81;21026;-83
2021/05/25 04:35:55;;;;;;;1.00;0.65;;;;;;;12.25;75.96;96172.53;1748819;80;21109;-83
2021/05/25 04:38:21;;;;;;;1.12;0.53;;;;;;;12.29;76.28;96170.62;1738546;81;21276;-83
2021/05/25 04:40:47;;;;;;;1.52;0.70;;;;;;;12.34;76.26;96158.30;1730436;81;21009;-83
2021/05/25 04:43:13;;;;;;;2.27;1.35;;;;;;;12.40;76.42;96165.84;1742706;81;21268;-83
2021/05/25 04:45:39;;;;;;;4.75;4.40;;;;;;;12.43;75.96;96165.45;1741183;80;21346;-82
2021/05/25 04:48:06;;;;;;;1.70;1.60;;;;;;;12.47;75.88;96173.97;1736555;81;21001;-82
2021/05/25 04:50:32;;;;;;;1.20;0.88;;;;;;;12.51;75.82;96182.19;1751774;81;20989;-83
2021/05/25 04:52:58;;;;;;;2.12;0.95;;;;;;;12.56;75.49;96178.50;1738480;81;21343;-83
2021/05/25 04:55:24;;;;;;;2.35;1.10;;;;;;;12.61;75.69;96190.43;1752002;80;21040;-83
2021/05/25 04:57:50;;;;;;;2.92;1.15;;;;;;;12.65;75.36;96194.23;1740828;81;21011;-83
2021/05/25 05:00:23;;;;;;;1.82;0.82;;;;;;;12.67;76.01;96194.03;1747687;80;21394;-82
2021/05/25 05:02:49;;;;;;;2.60;2.02;;;;;;;12.66;75.93;96206.27;1747243;80;21009;-83
2021/05/25 05:05:15;;;;;;;1.98;1.65;;;;;;;12.62;75.67;96202.45;1743586;80;20981;-83
2021/05/25 05:07:41;;;;;;;1.40;1.15;;;;;;;12.57;75.64;96199.66;1747340;80;20957;-83
2021/05/25 05:10:08;;;;;;;3.20;1.80;;;;;;;12.57;76.17;96199.66;1751107;80;21327;-82
2021/05/25 05:12:34;;;;;;;3.95;1.92;;;;;;;12.59;76.13;96195.84;1759351;80;20992;-83
2021/05/25 05:15:00;;;;;;;2.55;1.87;;;;;;;12.61;76.12;96208.17;1741203;80;21017;-83
2021/05/25 05:17:27;;;;;;;4.25;2.15;;;;;;;12.62;75.98;96203.77;1747936;80;21259;-83
2021/05/25 05:19:55;;;;;;;2.55;1.67;;;;;;;12.58;76.02;96209.08;1754561;80;20954;-83
2021/05/25 05:22:21;;;;;;;4.25;1.95;;;;;;;12.60;76.06;96214.89;1745925;80;21264;-83
2021/05/25 05:24:47;;;;;;;29.67;26.77;;;;;;;12.62;75.64;96224.11;1764438;80;21033;-83
2021/05/25 05:27:13;;;;;;;26.57;24.27;;;;;;;12.63;75.90;96213.19;1741727;80;20978;-83
2021/05/25 05:29:39;;;;;;;35.28;31.97;;;;;;;12.59;75.79;96229.73;1686296;84;21298;-83
2021/05/25 05:32:05;;;;;;;53.95;49.05;;;;;;;12.56;75.95;96226.72;1751454;80;20970;-83
2021/05/25 05:34:31;;;;;;;35.92;32.63;;;;;;;12.60;76.12;96227.42;1757479;80;20985;-83
2021/05/25 05:36:57;;;;;;;21.82;19.77;;;;;;;12.61;76.54;96223.81;1743386;80;21022;-83
2021/05/25 05:39:22;;;;;;;13.58;12.28;;;;;;;12.67;76.47;96232.63;1757304;80;21319;-83
2021/05/25 05:41:48;;;;;;;13.35;11.95;;;;;;;12.71;76.49;96235.67;1744114;80;21321;-83
2021/05/25 05:44:14;;;;;;;9.78;8.85;;;;;;;12.76;76.47;96238.48;1747487;80;21013;-86
2021/05/25 05:46:40;;;;;;;9.75;8.20;;;;;;;12.80;76.40;96240.48;1742398;80;20961;-84
2021/05/25 05:49:05;;;;;;;7.60;6.80;;;;;;;12.82;76.40;96244.19;1758042;80;21374;-83
2021/05/25 05:51:31;;;;;;;8.15;5.75;;;;;;;12.86;76.60;96242.81;1749127;80;20970;-84
2021/05/25 05:53:57;;;;;;;7.33;4.50;;;;;;;12.89;76.45;96245.02;1745949;80;20959;-85
2021/05/25 05:56:23;;;;;;;6.40;4.10;;;;;;;12.89;76.21;96248.93;1759256;80;20971;-85
2021/05/25 05:58:50;;;;;;;4.95;3.47;;;;;;;12.91;76.09;96245.63;1750500;80;21021;-85
2021/05/25 06:01:16;;;;;;;5.65;3.85;;;;;;;12.94;76.00;96241.30;1678724;84;21291;-85
2021/05/25 06:03:44;;;;;;;5.50;3.80;;;;;;;12.95;75.84;96240.30;1739409;81;21051;-84
2021/05/25 06:06:10;;;;;;;7.25;3.35;;;;;;;12.97;76.04;96236.98;1758128;80;21271;-85
2021/05/25 06:08:36;;;;;;;4.03;2.83;;;;;;;12.93;75.97;96235.28;1743638;80;20998;-85
2021/05/25 06:11:02;;;;;;;5.28;3.98;;;;;;;12.98;75.95;96234.68;1681546;84;21322;-85
2021/05/25 06:13:27;;;;;;;4.53;3.17;;;;;;;13.05;76.13;96226.38;1755775;80;20978;-85
2021/05/25 06:16:00;;;;;;;4.60;3.10;;;;;;;13.09;76.03;96218.94;1739077;80;21049;-84
2021/05/25 06:18:23;;;;;;;3.35;2.30;;;;;;;12.98;75.82;96194.76;1731789;80;21097;-84
2021/05/25 06:20:49;;;;;;;3.02;2.10;;;;;;;13.17;75.75;96213.00;1728732;80;21068;-85
2021/05/25 06:23:15;;;;;;;2.10;1.67;;;;;;;13.27;75.83;96198.79;1726737;80;21136;-85
2021/05/25 06:25:41;;;;;;;1.52;1.42;;;;;;;13.36;75.25;96217.16;1727444;80;20951;-83
2021/05/25 06:28:07;;;;;;;5.08;4.33;;;;;;;13.44;75.51;96223.45;1728049;80;20950;-84
2021/05/25 06:30:33;;;;;;;2.85;2.60;;;;;;;13.50;75.12;96226.08;1725259;80;21733;-84
2021/05/25 06:32:59;;;;;;;5.47;3.80;;;;;;;13.55;74.92;96222.84;1724362;80;20982;-84
2021/05/25 06:35:25;;;;;;;4.22;3.37;;;;;;;13.57;74.80;96233.88;1724515;80;21025;-84
2021/05/25 06:37:51;;;;;;;2.70;2.50;;;;;;;13.59;74.73;96226.64;1700255;82;21029;-85
2021/05/25 06:40:17;;;;;;;1.90;1.57;;;;;;;13.64;74.87;96219.50;1726522;80;21456;-85
2021/05/25 06:42:43;;;;;;;2.70;1.50;;;;;;;13.64;74.41;96216.38;1725254;80;21076;-83
2021/05/25 06:45:11;;;;;;;2.05;1.67;;;;;;;13.67;74.09;96218.61;1727347;80;21153;-84
2021/05/25 06:47:38;;;;;;;4.70;1.85;;;;;;;13.70;74.10;96209.05;1729421;82;20986;-85
2021/05/25 06:50:05;;;;;;;2.95;2.33;;;;;;;13.78;73.83;96209.32;1727738;80;20990;-83
2021/05/25 06:52:31;;;;;;;3.30;2.22;;;;;;;13.80;74.18;96211.22;1728496;80;20994;-84
2021/05/25 06:54:58;;;;;;;2.40;1.82;;;;;;;13.80;73.88;96212.52;1728988;80;21072;-85
2021/05/25 06:57:24;;;;;;;3.35;1.80;;;;;;;13.84;74.12;96216.86;1729811;80;20994;-85
2021/05/25 06:59:50;;;;;;;3.15;1.70;;;;;;;13.84;74.39;96220.27;1729770;80;21037;-85
2021/05/25 07:02:16;;;;;;;2.75;1.82;;;;;;;13.89;73.86;96217.03;1737623;80;21294;-82
2021/05/25 07:04:41;;;;;;;3.02;1.47;;;;;;;13.99;73.82;96206.45;1735234;80;20977;-83
2021/05/25 07:07:07;;;;;;;2.60;2.33;;;;;;;14.14;73.71;96212.70;1736680;80;22017;-83
2021/05/25 07:09:33;;;;;;;2.25;2.00;;;;;;;14.32;74.08;96218.57;1736978;80;21049;-83
2021/05/25 07:12:02;;;;;;;2.58;1.82;;;;;;;14.44;73.35;96218.22;1738146;80;21123;-82
2021/05/25 07:14:30;;;;;;;2.35;1.65;;;;;;;14.54;73.03;96223.00;1737140;80;21077;-84
2021/05/25 07:16:56;;;;;;;3.37;1.60;;;;;;;14.66;73.15;96226.05;1738055;80;21064;-84
2021/05/25 07:19:22;;;;;;;3.15;1.40;;;;;;;14.70;72.85;96227.22;1738512;80;21285;-84
2021/05/25 07:21:48;;;;;;;2.47;1.40;;;;;;;14.74;72.56;96236.75;1739567;80;21017;-83
2021/05/25 07:24:13;;;;;;;2.22;1.62;;;;;;;14.69;72.22;96228.74;1737058;80;21065;-84
2021/05/25 07:26:40;;;;;;;2.42;1.32;;;;;;;14.66;71.66;96231.78;1734676;80;21685;-84
2021/05/25 07:29:07;;;;;;;1.92;1.55;;;;;;;14.55;71.51;96237.67;1733994;80;21060;-84
2021/05/25 07:31:32;;;;;;;1.30;0.98;;;;;;;14.51;72.19;96235.99;1738320;80;20977;-84
2021/05/25 07:33:58;;;;;;;1.20;0.90;;;;;;;14.48;71.69;96239.03;1736984;80;21955;-84
2021/05/25 07:36:25;;;;;;;2.15;1.00;;;;;;;14.47;71.71;96238.70;1736935;80;21366;-87
2021/05/25 07:38:51;;;;;;;1.75;1.00;;;;;;;14.47;71.97;96247.05;1737633;80;21262;-84
2021/05/25 07:41:16;;;;;;;1.60;1.20;;;;;;;14.49;72.26;96252.91;1738441;80;21075;-84
2021/05/25 07:43:44;;;;;;;4.15;1.22;;;;;;;14.52;72.11;96261.63;1737561;80;21064;-84
2021/05/25 07:46:11;;;;;;;3.15;1.60;;;;;;;14.54;71.85;96263.52;1736154;80;21128;-85
2021/05/25 07:48:37;;;;;;;2.05;1.32;;;;;;;14.57;72.35;96258.67;1737165;80;22017;-83
2021/05/25 07:51:04;;;;;;;2.20;1.25;;;;;;;14.60;72.24;96260.86;1735180;80;21123;-84
2021/05/25 07:53:29;;;;;;;3.25;1.52;;;;;;;14.59;72.19;96261.08;1736677;80;21076;-83
2021/05/25 07:55:55;;;;;;;2.35;1.27;;;;;;;14.66;72.53;96263.97;1739278;80;21057;-82
2021/05/25 07:58:21;;;;;;;3.77;1.20;;;;;;;14.76;72.81;96268.72;1737464;80;21088;-85
2021/05/25 08:00:48;;;;;;;3.33;1.50;;;;;;;14.86;72.10;96265.66;1733071;80;21170;-85
2021/05/25 08:03:14;;;;;;;1.30;0.95;;;;;;;14.91;72.37;96269.23;1736278;80;20989;-83
2021/05/25 08:05:39;;;;;;;2.12;1.20;;;;;;;14.99;72.05;96274.73;1738161;80;20941;-85
2021/05/25 08:08:08;;;;;;;1.72;1.60;;;;;;;15.05;71.60;96280.92;1716354;80;20988;-83
2021/05/25 08:10:33;;;;;;;2.20;1.60;;;;;;;15.05;71.51;96275.69;1736047;80;20980;-84
2021/05/25 08:12:59;;;;;;;2.62;1.05;;;;;;;15.03;71.25;96282.95;1735534;80;21069;-85
2021/05/25 08:15:26;;;;;;;1.35;1.25;;;;;;;15.06;70.82;96282.02;1737935;80;21010;-85
2021/05/25 08:20:34;;;;;;;2.87;1.60;;;;;;;14.98;70.77;96298.79;1735058;80;21503;-85
2021/05/25 08:23:00;;;;;;;2.77;1.42;;;;;;;14.95;71.64;96296.56;1719444;81;21007;-85
2021/05/25 08:25:29;;;;;;;3.30;2.17;;;;;;;14.96;71.37;96303.91;1737561;80;21038;-84
2021/05/25 08:27:57;;;;;;;3.80;2.85;;;;;;;14.98;71.11;96300.09;1724447;81;21124;-85
2021/05/25 08:30:29;;;;;;;2.90;1.82;;;;;;;14.97;70.54;96302.92;1740051;80;21132;-84
2021/05/25 08:32:55;;;;;;;3.05;2.75;;;;;;;14.95;70.60;96304.92;1738952;80;21913;-83
2021/05/25 08:35:23;;;;;;;1.98;1.80;;;;;;;14.94;71.19;96316.41;1742240;80;20977;-84
2021/05/25 08:37:59;;;;;;;3.60;1.32;;;;;;;14.94;70.93;96312.48;1741460;80;20993;-86
2021/05/25 08:40:25;;;;;;;3.80;2.15;;;;;;;14.95;71.26;96321.42;1735626;80;21065;-84
2021/05/25 08:42:51;;;;;;;3.83;1.60;;;;;;;14.95;71.09;96320.63;1738873;80;21124;-85
2021/05/25 08:45:17;;;;;;;2.50;1.37;;;;;;;14.96;71.25;96324.84;1737939;80;22573;-87
2021/05/25 08:47:52;;;;;;;2.25;1.70;;;;;;;14.95;70.69;96324.55;1740194;80;21882;-85
2021/05/25 08:50:21;;;;;;;1.47;1.20;;;;;;;14.93;70.59;96326.06;1737576;80;20962;-86
2021/05/25 08:52:47;;;;;;;2.25;1.30;;;;;;;14.86;70.12;96327.13;1737930;80;21025;-85
2021/05/25 08:55:13;;;;;;;2.35;1.50;;;;;;;14.81;70.36;96334.81;1736172;80;20970;-84
2021/05/25 08:57:39;;;;;;;1.62;1.40;;;;;;;14.70;70.56;96337.06;1737628;80;21410;-85
2021/05/25 09:00:08;;;;;;;1.87;1.27;;;;;;;14.65;70.67;96334.78;1735706;80;21159;-84
2021/05/25 09:02:35;;;;;;;3.17;1.55;;;;;;;14.61;70.74;96340.91;1730962;80;20982;-84
2021/05/25 09:05:15;;;;;;;3.85;2.50;;;;;;;14.61;70.76;96340.91;1698890;80;21005;-87
2021/05/25 09:07:50;;;;;;;3.92;2.52;;;;;;;14.65;70.89;96346.55;1730868;80;21017;-85
2021/05/25 09:10:34;;;;;;;4.58;2.05;;;;;;;14.60;71.39;96339.81;1727857;80;21413;-85
2021/05/25 09:13:01;;;;;;;3.37;1.82;;;;;;;14.68;71.61;96348.24;1726856;80;21025;-83
2021/05/25 09:15:41;;;;;;;3.17;1.72;;;;;;;14.71;71.18;96347.82;1726133;80;21029;-83
2021/05/25 09:18:14;;;;;;;3.10;1.70;;;;;;;14.73;71.10;96353.34;1733339;80;21088;-83
2021/05/25 09:20:48;;;;;;;3.30;1.67;;;;;;;14.73;71.32;96354.66;1724101;80;21369;-83
2021/05/25 09:28:14;;;;;;;1.72;1.50;;;;;;;14.62;71.16;96350.86;1725678;80;21041;-85
2021/05/25 09:30:41;;;;;;;2.83;1.70;;;;;;;14.50;71.09;96360.39;1728024;80;20970;-84
2021/05/25 09:33:09;;;;;;;2.62;2.30;;;;;;;14.42;71.22;96371.83;1705577;82;21109;-87
2021/05/25 09:35:37;;;;;;;3.85;1.60;;;;;;;14.36;71.26;96380.00;1729421;80;21049;-85
2021/05/25 09:38:16;;;;;;;2.22;1.47;;;;;;;14.31;71.58;96377.17;1726683;80;21311;-85
2021/05/25 09:40:46;;;;;;;3.80;2.72;;;;;;;14.26;71.74;96386.14;1730744;80;20997;-86
2021/05/25 09:43:29;;;;;;;5.53;5.00;;;;;;;14.18;72.43;96383.76;1730412;80;21112;-83
2021/05/25 09:46:12;;;;;;;3.87;2.20;;;;;;;14.09;72.33;96385.77;1728126;80;21068;-83
2021/05/25 09:48:48;;;;;;;1.77;1.60;;;;;;;14.02;72.20;96391.52;1724890;80;20966;-87
2021/05/25 09:51:26;;;;;;;2.72;1.80;;;;;;;13.99;72.20;96393.23;1729868;80;21069;-84
2021/05/25 09:53:52;;;;;;;2.05;1.85;;;;;;;13.88;72.52;96395.14;1729307;80;21057;-87
2021/05/25 09:56:30;;;;;;;2.65;2.00;;;;;;;13.77;72.89;96390.52;1730030;80;21017;-87
2021/05/25 09:58:59;;;;;;;3.45;2.17;;;;;;;13.77;73.25;96395.73;1727933;80;21064;-84
2021/05/25 10:01:38;;;;;;;2.35;2.10;;;;;;;13.79;73.58;96391.91;1720648;80;21101;-84
2021/05/25 10:04:13;;;;;;;2.90;1.75;;;;;;;13.81;73.88;96396.43;1716470;81;20982;-84
2021/05/25 10:07:04;;;;;;;3.27;2.10;;;;;;;13.83;74.01;96397.56;1713321;81;21136;-86
2021/05/25 10:09:31;;;;;;;3.95;3.10;;;;;;;13.84;74.39;96393.14;1719252;81;21449;-86
2021/05/25 10:11:59;;;;;;;2.92;2.62;;;;;;;13.78;74.57;96406.48;1716035;81;21086;-84
2021/05/25 10:14:24;;;;;;;4.60;2.35;;;;;;;13.69;75.03;96394.64;1717767;81;21366;-86
2021/05/25 10:16:53;;;;;;;2.85;2.55;;;;;;;13.71;75.13;96405.69;1719416;81;21034;-83
2021/05/25 10:19:27;;;;;;;4.62;3.90;;;;;;;13.65;74.86;96406.47;1716914;81;21308;-84
2021/05/25 10:21:46;;;;;;;2.72;2.52;;;;;;;13.61;75.04;96411.30;1722112;81;21055;-84
2021/05/25 10:24:11;;;;;;;3.67;2.50;;;;;;;13.64;75.18;96412.20;1733137;81;21034;-84
2021/05/25 10:26:37;;;;;;;2.72;2.33;;;;;;;13.63;75.03;96408.48;1688431;83;21018;-84
2021/05/25 10:29:04;;;;;;;3.33;2.62;;;;;;;13.69;75.05;96404.59;1679697;84;21041;-84
2021/05/25 10:31:36;;;;;;;2.65;2.00;;;;;;;13.82;75.36;96408.98;1682334;83;21023;-84
2021/05/25 10:34:22;;;;;;;3.42;2.83;;;;;;;13.91;75.17;96415.62;1681910;83;21317;-85
2021/05/25 10:36:53;;;;;;;3.27;2.37;;;;;;;13.86;74.81;96421.16;1690901;83;21283;-83
2021/05/25 10:39:34;;;;;;;4.10;2.15;;;;;;;13.84;75.13;96427.09;1685308;83;21074;-86
2021/05/25 10:42:26;;;;;;;2.15;1.62;;;;;;;13.67;74.43;96431.41;1730582;81;20972;-83
2021/05/25 10:45:01;;;;;;;;;;;;;;;13.55;74.37;96432.19;1722641;81;21309;-84
2021/05/25 10:47:37;;;;;;;2.58;1.60;;;;;;;13.29;73.95;96432.92;1730088;81;20223;-84
2021/05/25 10:52:40;;;;;;;1.90;1.45;;;;;;;13.12;74.24;96454.12;1719644;81;21031;-85
2021/05/25 10:55:06;;;;;;;3.60;1.20;;;;;;;13.06;74.09;96464.04;1719916;81;20987;-84
2021/05/25 10:57:51;;;;;;;1.90;1.52;;;;;;;12.92;73.85;96468.89;1722271;81;21011;-84
2021/05/25 11:00:21;;;;;;;2.20;1.27;;;;;;;12.77;73.66;96505.52;1720998;81;21018;-84
2021/05/25 11:03:14;;;;;;;4.08;1.95;;;;;;;12.47;71.84;96516.66;1722205;81;21279;-84
2021/05/25 11:10:25;;;;;;;3.35;1.92;;;;;;;11.50;72.55;96508.55;1705622;81;21042;-86
2021/05/25 11:13:21;;;;;;;3.25;2.12;;;;;;;11.48;73.73;96537.86;1726291;81;21011;-87
2021/05/25 11:24:37;;;;;;;4.60;2.10;;;;;;;11.26;73.82;96556.53;1718881;81;20942;-82
2021/05/25 11:27:15;;;;;;;4.28;2.20;;;;;;;11.26;74.50;96559.12;1691890;83;20950;-83
2021/05/25 11:30:12;;;;;;;3.72;2.00;;;;;;;11.23;73.89;96558.69;1724917;81;21097;-83
2021/05/25 11:32:46;;;;;;;2.27;1.75;;;;;;;11.22;74.85;96559.16;1720762;81;21066;-83
2021/05/25 11:35:14;;;;;;;3.65;1.87;;;;;;;11.30;74.96;96568.17;1686828;83;21009;-83
2021/05/25 11:37:44;;;;;;;2.83;2.00;;;;;;;11.41;75.20;96565.12;1727457;81;21311;-83
2021/05/25 11:40:16;;;;;;;3.27;2.00;;;;;;;11.49;75.08;96563.38;1713361;81;20999;-83
2021/05/25 11:42:44;;;;;;;3.20;1.95;;;;;;;11.50;74.20;96564.50;1731596;81;21002;-83
2021/05/25 11:45:10;;;;;;;3.65;2.60;;;;;;;11.44;73.42;96565.24;1723527;81;20971;-83
2021/05/25 11:47:37;;;;;;;4.58;2.65;;;;;;;11.34;73.98;96563.41;1727097;81;21003;-83
2021/05/25 11:50:04;;;;;;;7.28;5.67;;;;;;;11.33;74.65;96565.70;1728981;81;22029;-86
2021/05/25 11:52:34;;;;;;;12.85;8.45;;;;;;;11.34;74.60;96569.91;1721801;81;21051;-84
2021/05/25 11:55:07;;;;;;;4.97;3.85;;;;;;;11.37;74.46;96563.84;1718884;81;21319;-84
2021/05/25 11:57:44;;;;;;;4.10;2.58;;;;;;;11.43;74.74;96559.73;1733773;81;21335;-83
2021/05/25 12:00:13;;;;;;;5.37;3.40;;;;;;;11.41;74.72;96552.60;1720146;81;20908;-82
2021/05/25 12:02:43;;;;;;;5.80;3.17;;;;;;;11.44;74.67;96549.63;1680193;82;21398;-83